sensor_id;sensor_type;location;lat;lon;timestamp;temperature;humidity
40454;DHT22;26160;51.858;4.398;2023-02-04T00:00:53;8.30;99.90
40454;DHT22;26160;51.858;4.398;2023-02-04T00:03:19;8.20;99.90
40454;DHT22;26160;51.858;4.398;2023-02-04T00:05:45;8.30;99.90
40454;DHT22;26160;51.858;4.398;2023-02-04T00:08:11;8.30;99.90
40454;DHT22;26160;51.858;4.398;2023-02-04T00:10:37;8.30;99.90
40454;DHT22;26160;51.858;4.398;2023-02-04T00:13:04;8.30;99.90
40454;DHT22;26160;51.858;4.398;2023-02-04T00:15:30;8.30;99.90
40454;DHT22;26160;51.858;4.398;2023-02-04T00:17:56;8.40;99.90
40454;DHT22;26160;51.858;4.398;2023-02-04T00:20:23;8.40;99.90
40454;DHT22;26160;51.858;4.398;2023-02-04T00:22:49;8.40;99.90
40454;DHT22;26160;51.858;4.398;2023-02-04T00:25:16;8.40;99.90
40454;DHT22;26160;51.858;4.398;2023-02-04T00:27:42;8.40;99.90
40454;DHT22;26160;51.858;4.398;2023-02-04T00:30:09;8.40;99.90
40454;DHT22;26160;51.858;4.398;2023-02-04T00:32:35;8.40;99.90
40454;DHT22;26160;51.858;4.398;2023-02-04T00:35:01;8.40;99.90
40454;DHT22;26160;51.858;4.398;2023-02-04T00:37:30;8.40;99.90
40454;DHT22;26160;51.858;4.398;2023-02-04T00:39:56;8.50;99.90
40454;DHT22;26160;51.858;4.398;2023-02-04T00:42:22;8.50;99.90
40454;DHT22;26160;51.858;4.398;2023-02-04T00:44:48;8.40;99.90
40454;DHT22;26160;51.858;4.398;2023-02-04T00:47:14;8.40;99.90
40454;DHT22;26160;51.858;4.398;2023-02-04T00:49:41;8.50;99.90
40454;DHT22;26160;51.858;4.398;2023-02-04T00:52:07;8.50;99.90
40454;DHT22;26160;51.858;4.398;2023-02-04T00:54:33;8.40;99.90
40454;DHT22;26160;51.858;4.398;2023-02-04T00:56:59;8.50;99.90
40454;DHT22;26160;51.858;4.398;2023-02-04T00:59:25;8.50;99.90
40454;DHT22;26160;51.858;4.398;2023-02-04T01:01:51;8.40;99.90
40454;DHT22;26160;51.858;4.398;2023-02-04T01:04:17;8.50;99.90
40454;DHT22;26160;51.858;4.398;2023-02-04T01:06:43;8.50;99.90
40454;DHT22;26160;51.858;4.398;2023-02-04T01:09:10;8.50;99.90
40454;DHT22;26160;51.858;4.398;2023-02-04T01:11:36;8.50;99.90
40454;DHT22;26160;51.858;4.398;2023-02-04T01:14:02;8.50;99.90
40454;DHT22;26160;51.858;4.398;2023-02-04T01:16:28;8.50;99.90
40454;DHT22;26160;51.858;4.398;2023-02-04T01:18:54;8.50;99.90
40454;DHT22;26160;51.858;4.398;2023-02-04T01:21:23;8.50;99.90
40454;DHT22;26160;51.858;4.398;2023-02-04T01:23:49;8.50;99.90
40454;DHT22;26160;51.858;4.398;2023-02-04T01:26:16;8.50;99.90
40454;DHT22;26160;51.858;4.398;2023-02-04T01:28:43;8.50;99.90
40454;DHT22;26160;51.858;4.398;2023-02-04T01:31:09;8.50;99.90
40454;DHT22;26160;51.858;4.398;2023-02-04T01:33:35;8.50;99.90
40454;DHT22;26160;51.858;4.398;2023-02-04T01:36:01;8.50;99.90
40454;DHT22;26160;51.858;4.398;2023-02-04T01:38:28;8.50;99.90
40454;DHT22;26160;51.858;4.398;2023-02-04T01:40:54;8.50;99.90
40454;DHT22;26160;51.858;4.398;2023-02-04T01:43:21;8.50;99.90
40454;DHT22;26160;51.858;4.398;2023-02-04T01:45:48;8.50;99.90
40454;DHT22;26160;51.858;4.398;2023-02-04T01:48:17;8.50;99.90
40454;DHT22;26160;51.858;4.398;2023-02-04T01:50:49;8.50;99.90
40454;DHT22;26160;51.858;4.398;2023-02-04T01:53:22;8.50;99.90
40454;DHT22;26160;51.858;4.398;2023-02-04T01:55:50;8.50;99.90
40454;DHT22;26160;51.858;4.398;2023-02-04T01:58:17;8.50;99.90
40454;DHT22;26160;51.858;4.398;2023-02-04T02:03:19;8.60;99.90
40454;DHT22;26160;51.858;4.398;2023-02-04T02:05:51;8.50;99.90
40454;DHT22;26160;51.858;4.398;2023-02-04T02:08:19;8.60;99.90
40454;DHT22;26160;51.858;4.398;2023-02-04T02:10:47;8.50;99.90
40454;DHT22;26160;51.858;4.398;2023-02-04T02:13:17;8.60;99.90
40454;DHT22;26160;51.858;4.398;2023-02-04T02:15:44;8.50;99.90
40454;DHT22;26160;51.858;4.398;2023-02-04T02:18:11;8.50;99.90
40454;DHT22;26160;51.858;4.398;2023-02-04T02:20:37;8.50;99.90
40454;DHT22;26160;51.858;4.398;2023-02-04T02:23:24;8.50;99.90
40454;DHT22;26160;51.858;4.398;2023-02-04T02:25:52;8.50;99.90
40454;DHT22;26160;51.858;4.398;2023-02-04T02:28:20;8.50;99.90
40454;DHT22;26160;51.858;4.398;2023-02-04T02:30:48;8.40;99.90
40454;DHT22;26160;51.858;4.398;2023-02-04T02:33:17;8.50;99.90
40454;DHT22;26160;51.858;4.398;2023-02-04T02:35:45;8.50;99.90
40454;DHT22;26160;51.858;4.398;2023-02-04T02:38:17;8.50;99.90
40454;DHT22;26160;51.858;4.398;2023-02-04T02:40:44;8.50;99.90
40454;DHT22;26160;51.858;4.398;2023-02-04T02:43:19;8.50;99.90
40454;DHT22;26160;51.858;4.398;2023-02-04T02:45:46;8.50;99.90
40454;DHT22;26160;51.858;4.398;2023-02-04T02:48:13;8.50;99.90
40454;DHT22;26160;51.858;4.398;2023-02-04T02:50:40;8.50;99.90
40454;DHT22;26160;51.858;4.398;2023-02-04T02:53:11;8.50;99.90
40454;DHT22;26160;51.858;4.398;2023-02-04T02:55:38;8.50;99.90
40454;DHT22;26160;51.858;4.398;2023-02-04T02:58:11;8.50;99.90
40454;DHT22;26160;51.858;4.398;2023-02-04T03:00:39;8.50;99.90
40454;DHT22;26160;51.858;4.398;2023-02-04T03:03:13;8.50;99.90
40454;DHT22;26160;51.858;4.398;2023-02-04T03:05:42;8.50;99.90
40454;DHT22;26160;51.858;4.398;2023-02-04T03:08:11;8.50;99.90
40454;DHT22;26160;51.858;4.398;2023-02-04T03:10:38;8.50;99.90
40454;DHT22;26160;51.858;4.398;2023-02-04T03:13:05;8.50;99.90
40454;DHT22;26160;51.858;4.398;2023-02-04T03:15:32;8.50;99.90
40454;DHT22;26160;51.858;4.398;2023-02-04T03:17:58;8.50;99.90
40454;DHT22;26160;51.858;4.398;2023-02-04T03:20:27;8.50;99.90
40454;DHT22;26160;51.858;4.398;2023-02-04T03:22:55;8.50;99.90
40454;DHT22;26160;51.858;4.398;2023-02-04T03:25:23;8.50;99.90
40454;DHT22;26160;51.858;4.398;2023-02-04T03:27:51;8.50;99.90
40454;DHT22;26160;51.858;4.398;2023-02-04T03:30:21;8.50;99.90
40454;DHT22;26160;51.858;4.398;2023-02-04T03:32:48;8.50;99.90
40454;DHT22;26160;51.858;4.398;2023-02-04T03:35:14;8.50;99.90
40454;DHT22;26160;51.858;4.398;2023-02-04T03:37:40;8.50;99.90
40454;DHT22;26160;51.858;4.398;2023-02-04T03:40:07;8.50;99.90
40454;DHT22;26160;51.858;4.398;2023-02-04T03:42:33;8.40;99.90
40454;DHT22;26160;51.858;4.398;2023-02-04T03:44:59;8.40;99.90
40454;DHT22;26160;51.858;4.398;2023-02-04T03:47:25;8.40;99.90
40454;DHT22;26160;51.858;4.398;2023-02-04T03:49:51;8.30;99.90
40454;DHT22;26160;51.858;4.398;2023-02-04T03:52:18;8.30;99.90
40454;DHT22;26160;51.858;4.398;2023-02-04T03:54:45;8.40;99.90
40454;DHT22;26160;51.858;4.398;2023-02-04T03:57:12;8.40;99.90
40454;DHT22;26160;51.858;4.398;2023-02-04T03:59:38;8.40;99.90
40454;DHT22;26160;51.858;4.398;2023-02-04T04:02:04;8.40;99.90
40454;DHT22;26160;51.858;4.398;2023-02-04T04:04:30;8.40;99.90
40454;DHT22;26160;51.858;4.398;2023-02-04T04:06:56;8.30;99.90
40454;DHT22;26160;51.858;4.398;2023-02-04T04:09:22;8.30;99.90
40454;DHT22;26160;51.858;4.398;2023-02-04T04:11:48;8.30;99.90
40454;DHT22;26160;51.858;4.398;2023-02-04T04:14:14;8.30;99.90
40454;DHT22;26160;51.858;4.398;2023-02-04T04:16:40;8.30;99.90
40454;DHT22;26160;51.858;4.398;2023-02-04T04:19:07;8.30;99.90
40454;DHT22;26160;51.858;4.398;2023-02-04T04:21:33;8.30;99.90
40454;DHT22;26160;51.858;4.398;2023-02-04T04:23:59;8.30;99.90
40454;DHT22;26160;51.858;4.398;2023-02-04T04:26:25;8.30;99.90
40454;DHT22;26160;51.858;4.398;2023-02-04T04:28:51;8.40;99.90
40454;DHT22;26160;51.858;4.398;2023-02-04T04:31:17;8.40;99.90
40454;DHT22;26160;51.858;4.398;2023-02-04T04:33:43;8.40;99.90
40454;DHT22;26160;51.858;4.398;2023-02-04T04:36:09;8.40;99.90
40454;DHT22;26160;51.858;4.398;2023-02-04T04:38:35;8.40;99.90
40454;DHT22;26160;51.858;4.398;2023-02-04T04:41:01;8.40;99.90
40454;DHT22;26160;51.858;4.398;2023-02-04T04:43:27;8.40;99.90
40454;DHT22;26160;51.858;4.398;2023-02-04T04:45:53;8.40;99.90
40454;DHT22;26160;51.858;4.398;2023-02-04T04:48:20;8.40;99.90
40454;DHT22;26160;51.858;4.398;2023-02-04T04:50:46;8.40;99.90
40454;DHT22;26160;51.858;4.398;2023-02-04T04:53:12;8.50;99.90
40454;DHT22;26160;51.858;4.398;2023-02-04T04:55:39;8.50;99.90
40454;DHT22;26160;51.858;4.398;2023-02-04T04:58:06;8.50;99.90
40454;DHT22;26160;51.858;4.398;2023-02-04T05:00:32;8.50;99.90
40454;DHT22;26160;51.858;4.398;2023-02-04T05:02:59;8.50;99.90
40454;DHT22;26160;51.858;4.398;2023-02-04T05:05:25;8.50;99.90
40454;DHT22;26160;51.858;4.398;2023-02-04T05:07:51;8.50;99.90
40454;DHT22;26160;51.858;4.398;2023-02-04T05:10:19;8.50;99.90
40454;DHT22;26160;51.858;4.398;2023-02-04T05:12:45;8.50;99.90
40454;DHT22;26160;51.858;4.398;2023-02-04T05:15:11;8.50;99.90
40454;DHT22;26160;51.858;4.398;2023-02-04T05:17:37;8.50;99.90
40454;DHT22;26160;51.858;4.398;2023-02-04T05:20:04;8.50;99.90
40454;DHT22;26160;51.858;4.398;2023-02-04T05:22:30;8.50;99.90
40454;DHT22;26160;51.858;4.398;2023-02-04T05:24:56;8.60;99.90
40454;DHT22;26160;51.858;4.398;2023-02-04T05:27:22;8.50;99.90
40454;DHT22;26160;51.858;4.398;2023-02-04T05:29:48;8.50;99.90
40454;DHT22;26160;51.858;4.398;2023-02-04T05:32:14;8.50;99.90
40454;DHT22;26160;51.858;4.398;2023-02-04T05:34:40;8.60;99.90
40454;DHT22;26160;51.858;4.398;2023-02-04T05:37:07;8.50;99.90
40454;DHT22;26160;51.858;4.398;2023-02-04T05:39:33;8.50;99.90
40454;DHT22;26160;51.858;4.398;2023-02-04T05:41:59;8.50;99.90
40454;DHT22;26160;51.858;4.398;2023-02-04T05:44:25;8.50;99.90
40454;DHT22;26160;51.858;4.398;2023-02-04T05:46:51;8.50;99.90
40454;DHT22;26160;51.858;4.398;2023-02-04T05:49:17;8.40;99.90
40454;DHT22;26160;51.858;4.398;2023-02-04T05:51:43;8.40;99.90
40454;DHT22;26160;51.858;4.398;2023-02-04T05:54:09;8.40;99.90
40454;DHT22;26160;51.858;4.398;2023-02-04T05:56:36;8.40;99.90
40454;DHT22;26160;51.858;4.398;2023-02-04T05:59:02;8.50;99.90
40454;DHT22;26160;51.858;4.398;2023-02-04T06:01:28;8.50;99.90
40454;DHT22;26160;51.858;4.398;2023-02-04T06:03:54;8.40;99.90
40454;DHT22;26160;51.858;4.398;2023-02-04T06:06:20;8.50;99.90
40454;DHT22;26160;51.858;4.398;2023-02-04T06:08:46;8.40;99.90
40454;DHT22;26160;51.858;4.398;2023-02-04T06:11:12;8.40;99.90
40454;DHT22;26160;51.858;4.398;2023-02-04T06:13:38;8.40;99.90
40454;DHT22;26160;51.858;4.398;2023-02-04T06:16:05;8.40;99.90
40454;DHT22;26160;51.858;4.398;2023-02-04T06:18:31;8.40;99.90
40454;DHT22;26160;51.858;4.398;2023-02-04T06:20:57;8.40;99.90
40454;DHT22;26160;51.858;4.398;2023-02-04T06:23:23;8.40;99.90
40454;DHT22;26160;51.858;4.398;2023-02-04T06:25:49;8.40;99.90
40454;DHT22;26160;51.858;4.398;2023-02-04T06:28:15;8.40;99.90
40454;DHT22;26160;51.858;4.398;2023-02-04T06:30:41;8.40;99.90
40454;DHT22;26160;51.858;4.398;2023-02-04T06:33:09;8.40;99.90
40454;DHT22;26160;51.858;4.398;2023-02-04T06:35:35;8.40;99.90
40454;DHT22;26160;51.858;4.398;2023-02-04T06:38:01;8.40;99.90
40454;DHT22;26160;51.858;4.398;2023-02-04T06:40:27;8.40;99.90
40454;DHT22;26160;51.858;4.398;2023-02-04T06:42:53;8.40;99.90
40454;DHT22;26160;51.858;4.398;2023-02-04T06:45:19;8.40;99.90
40454;DHT22;26160;51.858;4.398;2023-02-04T06:47:45;8.40;99.90
40454;DHT22;26160;51.858;4.398;2023-02-04T06:50:11;8.40;99.90
40454;DHT22;26160;51.858;4.398;2023-02-04T06:52:37;8.40;99.90
40454;DHT22;26160;51.858;4.398;2023-02-04T06:55:03;8.40;99.90
40454;DHT22;26160;51.858;4.398;2023-02-04T06:57:29;8.40;99.90
40454;DHT22;26160;51.858;4.398;2023-02-04T06:59:55;8.40;99.90
40454;DHT22;26160;51.858;4.398;2023-02-04T07:02:22;8.40;99.90
40454;DHT22;26160;51.858;4.398;2023-02-04T07:04:48;8.40;99.90
40454;DHT22;26160;51.858;4.398;2023-02-04T07:07:14;8.40;99.90
40454;DHT22;26160;51.858;4.398;2023-02-04T07:09:40;8.40;99.90
40454;DHT22;26160;51.858;4.398;2023-02-04T07:12:07;8.40;99.90
40454;DHT22;26160;51.858;4.398;2023-02-04T07:14:33;8.50;99.90
40454;DHT22;26160;51.858;4.398;2023-02-04T07:16:59;8.50;99.90
40454;DHT22;26160;51.858;4.398;2023-02-04T07:19:25;8.50;99.90
40454;DHT22;26160;51.858;4.398;2023-02-04T07:21:52;8.50;99.90
40454;DHT22;26160;51.858;4.398;2023-02-04T07:24:22;8.50;99.90
40454;DHT22;26160;51.858;4.398;2023-02-04T07:26:49;8.40;99.90
40454;DHT22;26160;51.858;4.398;2023-02-04T07:29:15;8.40;99.90
40454;DHT22;26160;51.858;4.398;2023-02-04T07:31:41;8.50;99.90
40454;DHT22;26160;51.858;4.398;2023-02-04T07:34:07;8.50;99.90
40454;DHT22;26160;51.858;4.398;2023-02-04T07:36:33;8.40;99.90
40454;DHT22;26160;51.858;4.398;2023-02-04T07:38:59;8.40;99.90
40454;DHT22;26160;51.858;4.398;2023-02-04T07:41:25;8.50;99.90
40454;DHT22;26160;51.858;4.398;2023-02-04T07:43:51;8.50;99.90
40454;DHT22;26160;51.858;4.398;2023-02-04T07:46:17;8.50;99.90
40454;DHT22;26160;51.858;4.398;2023-02-04T07:48:44;8.60;99.90
40454;DHT22;26160;51.858;4.398;2023-02-04T07:51:10;8.60;99.90
40454;DHT22;26160;51.858;4.398;2023-02-04T07:53:36;8.60;99.90
40454;DHT22;26160;51.858;4.398;2023-02-04T07:56:02;8.60;99.90
40454;DHT22;26160;51.858;4.398;2023-02-04T07:58:28;8.60;99.90
40454;DHT22;26160;51.858;4.398;2023-02-04T08:00:54;8.70;99.90
40454;DHT22;26160;51.858;4.398;2023-02-04T08:03:20;8.70;99.90
40454;DHT22;26160;51.858;4.398;2023-02-04T08:05:46;8.70;99.90
40454;DHT22;26160;51.858;4.398;2023-02-04T08:08:12;8.80;99.90
40454;DHT22;26160;51.858;4.398;2023-02-04T08:10:39;8.70;99.90
40454;DHT22;26160;51.858;4.398;2023-02-04T08:13:05;8.80;99.90
40454;DHT22;26160;51.858;4.398;2023-02-04T08:15:31;8.80;99.90
40454;DHT22;26160;51.858;4.398;2023-02-04T08:17:57;8.80;99.90
40454;DHT22;26160;51.858;4.398;2023-02-04T08:20:23;8.70;99.90
40454;DHT22;26160;51.858;4.398;2023-02-04T08:22:49;8.70;99.90
40454;DHT22;26160;51.858;4.398;2023-02-04T08:25:15;8.60;99.90
40454;DHT22;26160;51.858;4.398;2023-02-04T08:27:41;8.70;99.90
40454;DHT22;26160;51.858;4.398;2023-02-04T08:30:09;8.70;99.90
40454;DHT22;26160;51.858;4.398;2023-02-04T08:32:35;8.80;99.90
40454;DHT22;26160;51.858;4.398;2023-02-04T08:35:01;8.80;99.90
40454;DHT22;26160;51.858;4.398;2023-02-04T08:37:27;8.80;99.90
40454;DHT22;26160;51.858;4.398;2023-02-04T08:39:53;8.90;99.90
40454;DHT22;26160;51.858;4.398;2023-02-04T08:42:20;9.00;99.90
40454;DHT22;26160;51.858;4.398;2023-02-04T08:44:46;9.00;99.90
40454;DHT22;26160;51.858;4.398;2023-02-04T08:47:12;9.00;99.90
40454;DHT22;26160;51.858;4.398;2023-02-04T08:49:38;8.90;99.90
40454;DHT22;26160;51.858;4.398;2023-02-04T08:52:05;9.00;99.90
40454;DHT22;26160;51.858;4.398;2023-02-04T08:54:32;9.10;99.90
40454;DHT22;26160;51.858;4.398;2023-02-04T08:56:59;9.20;99.90
40454;DHT22;26160;51.858;4.398;2023-02-04T08:59:26;9.30;99.90
40454;DHT22;26160;51.858;4.398;2023-02-04T09:01:53;9.30;99.90
40454;DHT22;26160;51.858;4.398;2023-02-04T09:04:21;9.30;99.90
40454;DHT22;26160;51.858;4.398;2023-02-04T09:06:48;9.40;99.90
40454;DHT22;26160;51.858;4.398;2023-02-04T09:09:15;9.30;99.90
40454;DHT22;26160;51.858;4.398;2023-02-04T09:11:42;9.30;99.90
40454;DHT22;26160;51.858;4.398;2023-02-04T09:14:08;9.40;99.90
40454;DHT22;26160;51.858;4.398;2023-02-04T09:16:34;9.30;99.90
40454;DHT22;26160;51.858;4.398;2023-02-04T09:19:00;9.40;99.90
40454;DHT22;26160;51.858;4.398;2023-02-04T09:21:27;9.40;99.90
40454;DHT22;26160;51.858;4.398;2023-02-04T09:23:53;9.40;99.90
40454;DHT22;26160;51.858;4.398;2023-02-04T09:26:19;9.50;99.90
40454;DHT22;26160;51.858;4.398;2023-02-04T09:28:46;9.60;99.90
40454;DHT22;26160;51.858;4.398;2023-02-04T09:31:14;9.50;99.90
40454;DHT22;26160;51.858;4.398;2023-02-04T09:33:40;9.50;99.90
40454;DHT22;26160;51.858;4.398;2023-02-04T09:36:07;9.40;99.90
40454;DHT22;26160;51.858;4.398;2023-02-04T09:38:33;9.40;99.90
40454;DHT22;26160;51.858;4.398;2023-02-04T09:41:03;9.30;99.90
40454;DHT22;26160;51.858;4.398;2023-02-04T09:43:33;9.40;99.90
40454;DHT22;26160;51.858;4.398;2023-02-04T09:45:59;9.50;99.90
40454;DHT22;26160;51.858;4.398;2023-02-04T09:48:26;9.50;99.90
40454;DHT22;26160;51.858;4.398;2023-02-04T09:51:04;9.50;99.90
40454;DHT22;26160;51.858;4.398;2023-02-04T09:53:31;9.60;99.90
40454;DHT22;26160;51.858;4.398;2023-02-04T09:55:57;9.60;99.90
40454;DHT22;26160;51.858;4.398;2023-02-04T09:58:25;9.60;99.90
40454;DHT22;26160;51.858;4.398;2023-02-04T10:01:00;9.50;99.90
40454;DHT22;26160;51.858;4.398;2023-02-04T10:03:30;9.50;99.90
40454;DHT22;26160;51.858;4.398;2023-02-04T10:05:56;9.50;99.90
40454;DHT22;26160;51.858;4.398;2023-02-04T10:08:28;9.50;99.90
40454;DHT22;26160;51.858;4.398;2023-02-04T10:10:55;9.60;99.90
40454;DHT22;26160;51.858;4.398;2023-02-04T10:13:30;9.50;99.90
40454;DHT22;26160;51.858;4.398;2023-02-04T10:15:58;9.50;99.90
40454;DHT22;26160;51.858;4.398;2023-02-04T10:18:31;9.50;99.90
40454;DHT22;26160;51.858;4.398;2023-02-04T10:21:23;9.40;99.90
40454;DHT22;26160;51.858;4.398;2023-02-04T10:23:54;9.40;99.90
40454;DHT22;26160;51.858;4.398;2023-02-04T10:26:21;9.50;99.90
40454;DHT22;26160;51.858;4.398;2023-02-04T10:28:48;9.40;99.90
40454;DHT22;26160;51.858;4.398;2023-02-04T10:31:34;9.40;99.90
40454;DHT22;26160;51.858;4.398;2023-02-04T10:34:15;9.40;99.90
40454;DHT22;26160;51.858;4.398;2023-02-04T10:36:43;9.50;99.90
40454;DHT22;26160;51.858;4.398;2023-02-04T10:39:14;9.40;99.90
40454;DHT22;26160;51.858;4.398;2023-02-04T10:44:14;9.30;99.90
40454;DHT22;26160;51.858;4.398;2023-02-04T10:46:40;9.40;99.90
40454;DHT22;26160;51.858;4.398;2023-02-04T10:49:20;9.40;99.90
40454;DHT22;26160;51.858;4.398;2023-02-04T10:51:48;9.40;99.90
40454;DHT22;26160;51.858;4.398;2023-02-04T10:54:16;9.40;99.90
40454;DHT22;26160;51.858;4.398;2023-02-04T10:56:57;9.40;99.90
40454;DHT22;26160;51.858;4.398;2023-02-04T10:59:25;9.40;99.90
40454;DHT22;26160;51.858;4.398;2023-02-04T11:01:57;9.40;99.90
40454;DHT22;26160;51.858;4.398;2023-02-04T11:04:25;9.40;99.90
40454;DHT22;26160;51.858;4.398;2023-02-04T11:06:52;9.30;99.90
40454;DHT22;26160;51.858;4.398;2023-02-04T11:09:18;9.30;99.90
40454;DHT22;26160;51.858;4.398;2023-02-04T11:11:46;9.30;99.90
40454;DHT22;26160;51.858;4.398;2023-02-04T11:14:27;9.30;99.90
40454;DHT22;26160;51.858;4.398;2023-02-04T11:16:55;9.30;99.90
40454;DHT22;26160;51.858;4.398;2023-02-04T11:19:37;9.30;99.90
40454;DHT22;26160;51.858;4.398;2023-02-04T11:25:03;9.40;99.90
40454;DHT22;26160;51.858;4.398;2023-02-04T11:27:38;9.30;99.90
40454;DHT22;26160;51.858;4.398;2023-02-04T11:30:20;9.40;99.90
40454;DHT22;26160;51.858;4.398;2023-02-04T11:33:03;9.40;99.90
40454;DHT22;26160;51.858;4.398;2023-02-04T11:35:30;9.40;99.90
40454;DHT22;26160;51.858;4.398;2023-02-04T11:37:57;9.40;99.90
40454;DHT22;26160;51.858;4.398;2023-02-04T11:43:13;9.40;99.90
40454;DHT22;26160;51.858;4.398;2023-02-04T11:45:42;9.50;99.90
40454;DHT22;26160;51.858;4.398;2023-02-04T11:48:16;9.50;99.90
40454;DHT22;26160;51.858;4.398;2023-02-04T11:51:14;9.40;99.90
40454;DHT22;26160;51.858;4.398;2023-02-04T11:53:51;9.40;99.90
40454;DHT22;26160;51.858;4.398;2023-02-04T11:56:35;9.50;99.90
40454;DHT22;26160;51.858;4.398;2023-02-04T11:59:04;9.50;99.90
40454;DHT22;26160;51.858;4.398;2023-02-04T12:01:41;9.50;99.90
40454;DHT22;26160;51.858;4.398;2023-02-04T12:04:22;9.60;99.90
40454;DHT22;26160;51.858;4.398;2023-02-04T12:07:01;9.60;99.90
40454;DHT22;26160;51.858;4.398;2023-02-04T12:09:34;9.70;99.90
40454;DHT22;26160;51.858;4.398;2023-02-04T12:12:23;9.60;99.90
40454;DHT22;26160;51.858;4.398;2023-02-04T12:15:14;9.60;99.90
40454;DHT22;26160;51.858;4.398;2023-02-04T12:17:45;9.60;99.90
40454;DHT22;26160;51.858;4.398;2023-02-04T12:20:17;9.50;99.90
40454;DHT22;26160;51.858;4.398;2023-02-04T12:22:45;9.50;99.90
40454;DHT22;26160;51.858;4.398;2023-02-04T12:25:33;9.50;99.90
40454;DHT22;26160;51.858;4.398;2023-02-04T12:28:02;9.60;99.90
40454;DHT22;26160;51.858;4.398;2023-02-04T12:30:30;9.60;99.90
40454;DHT22;26160;51.858;4.398;2023-02-04T12:32:57;9.50;99.90
40454;DHT22;26160;51.858;4.398;2023-02-04T12:35:23;9.50;99.90
40454;DHT22;26160;51.858;4.398;2023-02-04T12:37:50;9.50;99.90
40454;DHT22;26160;51.858;4.398;2023-02-04T12:40:21;9.50;99.90
40454;DHT22;26160;51.858;4.398;2023-02-04T12:42:48;9.70;99.90
40454;DHT22;26160;51.858;4.398;2023-02-04T12:45:15;9.80;99.90
40454;DHT22;26160;51.858;4.398;2023-02-04T12:47:43;9.80;99.90
40454;DHT22;26160;51.858;4.398;2023-02-04T12:50:12;9.90;99.90
40454;DHT22;26160;51.858;4.398;2023-02-04T12:52:39;9.80;99.90
40454;DHT22;26160;51.858;4.398;2023-02-04T12:55:08;9.80;99.90
40454;DHT22;26160;51.858;4.398;2023-02-04T12:57:38;9.90;99.90
40454;DHT22;26160;51.858;4.398;2023-02-04T13:00:06;9.80;99.90
40454;DHT22;26160;51.858;4.398;2023-02-04T13:02:32;9.70;99.90
40454;DHT22;26160;51.858;4.398;2023-02-04T13:04:59;9.70;99.90
40454;DHT22;26160;51.858;4.398;2023-02-04T13:07:26;9.70;99.90
40454;DHT22;26160;51.858;4.398;2023-02-04T13:09:53;9.70;99.90
40454;DHT22;26160;51.858;4.398;2023-02-04T13:12:19;9.80;99.90
40454;DHT22;26160;51.858;4.398;2023-02-04T13:14:47;9.90;99.90
40454;DHT22;26160;51.858;4.398;2023-02-04T13:17:14;9.90;99.90
40454;DHT22;26160;51.858;4.398;2023-02-04T13:19:42;10.10;99.90
40454;DHT22;26160;51.858;4.398;2023-02-04T13:22:09;10.10;99.90
40454;DHT22;26160;51.858;4.398;2023-02-04T13:24:36;10.00;99.90
40454;DHT22;26160;51.858;4.398;2023-02-04T13:27:04;10.10;99.90
40454;DHT22;26160;51.858;4.398;2023-02-04T13:29:31;10.00;99.90
40454;DHT22;26160;51.858;4.398;2023-02-04T13:31:57;10.00;99.90
40454;DHT22;26160;51.858;4.398;2023-02-04T13:34:24;10.00;99.90
40454;DHT22;26160;51.858;4.398;2023-02-04T13:36:51;10.00;99.90
40454;DHT22;26160;51.858;4.398;2023-02-04T13:39:18;10.10;99.90
40454;DHT22;26160;51.858;4.398;2023-02-04T13:41:44;10.10;99.90
40454;DHT22;26160;51.858;4.398;2023-02-04T13:44:11;10.00;99.90
40454;DHT22;26160;51.858;4.398;2023-02-04T13:46:38;10.00;99.90
40454;DHT22;26160;51.858;4.398;2023-02-04T13:49:04;10.00;99.90
40454;DHT22;26160;51.858;4.398;2023-02-04T13:51:33;10.10;99.90
40454;DHT22;26160;51.858;4.398;2023-02-04T13:53:59;10.10;99.90
40454;DHT22;26160;51.858;4.398;2023-02-04T13:56:26;10.00;99.90
40454;DHT22;26160;51.858;4.398;2023-02-04T13:58:52;10.00;99.90
40454;DHT22;26160;51.858;4.398;2023-02-04T14:01:19;10.00;99.90
40454;DHT22;26160;51.858;4.398;2023-02-04T14:03:46;10.00;99.90
40454;DHT22;26160;51.858;4.398;2023-02-04T14:06:14;9.80;99.90
40454;DHT22;26160;51.858;4.398;2023-02-04T14:08:54;9.60;99.90
40454;DHT22;26160;51.858;4.398;2023-02-04T14:11:44;9.60;99.90
40454;DHT22;26160;51.858;4.398;2023-02-04T14:14:19;9.50;99.90
40454;DHT22;26160;51.858;4.398;2023-02-04T14:16:47;9.60;99.90
40454;DHT22;26160;51.858;4.398;2023-02-04T14:19:20;9.60;99.90
40454;DHT22;26160;51.858;4.398;2023-02-04T14:21:53;9.70;99.90
40454;DHT22;26160;51.858;4.398;2023-02-04T14:24:23;9.60;99.90
40454;DHT22;26160;51.858;4.398;2023-02-04T14:26:51;9.70;99.90
40454;DHT22;26160;51.858;4.398;2023-02-04T14:29:18;9.80;99.90
40454;DHT22;26160;51.858;4.398;2023-02-04T14:31:44;9.70;99.90
40454;DHT22;26160;51.858;4.398;2023-02-04T14:34:11;9.70;99.90
40454;DHT22;26160;51.858;4.398;2023-02-04T14:36:39;9.70;99.90
40454;DHT22;26160;51.858;4.398;2023-02-04T14:39:06;9.60;99.90
40454;DHT22;26160;51.858;4.398;2023-02-04T14:41:38;9.60;99.90
40454;DHT22;26160;51.858;4.398;2023-02-04T14:44:06;9.60;99.90
40454;DHT22;26160;51.858;4.398;2023-02-04T14:46:35;9.70;99.90
40454;DHT22;26160;51.858;4.398;2023-02-04T14:49:01;9.60;99.90
40454;DHT22;26160;51.858;4.398;2023-02-04T14:51:28;9.60;99.90
40454;DHT22;26160;51.858;4.398;2023-02-04T14:53:54;9.70;99.90
40454;DHT22;26160;51.858;4.398;2023-02-04T14:56:23;9.70;99.90
40454;DHT22;26160;51.858;4.398;2023-02-04T14:58:49;9.80;99.90
40454;DHT22;26160;51.858;4.398;2023-02-04T15:01:15;9.80;99.90
40454;DHT22;26160;51.858;4.398;2023-02-04T15:03:42;9.90;99.90
40454;DHT22;26160;51.858;4.398;2023-02-04T15:06:09;9.90;99.90
40454;DHT22;26160;51.858;4.398;2023-02-04T15:08:35;9.90;99.90
40454;DHT22;26160;51.858;4.398;2023-02-04T15:11:05;10.00;99.90
40454;DHT22;26160;51.858;4.398;2023-02-04T15:13:32;9.90;99.90
40454;DHT22;26160;51.858;4.398;2023-02-04T15:15:58;9.70;99.90
40454;DHT22;26160;51.858;4.398;2023-02-04T15:18:24;9.70;99.90
40454;DHT22;26160;51.858;4.398;2023-02-04T15:20:50;9.60;99.90
40454;DHT22;26160;51.858;4.398;2023-02-04T15:23:16;9.60;99.90
40454;DHT22;26160;51.858;4.398;2023-02-04T15:25:43;9.60;99.90
40454;DHT22;26160;51.858;4.398;2023-02-04T15:28:09;9.70;99.90
40454;DHT22;26160;51.858;4.398;2023-02-04T15:30:35;9.80;99.90
40454;DHT22;26160;51.858;4.398;2023-02-04T15:33:01;9.80;99.90
40454;DHT22;26160;51.858;4.398;2023-02-04T15:35:28;9.80;99.90
40454;DHT22;26160;51.858;4.398;2023-02-04T15:37:54;9.80;99.90
40454;DHT22;26160;51.858;4.398;2023-02-04T15:40:20;9.80;99.90
40454;DHT22;26160;51.858;4.398;2023-02-04T15:42:46;9.80;99.90
40454;DHT22;26160;51.858;4.398;2023-02-04T15:45:12;9.80;99.90
40454;DHT22;26160;51.858;4.398;2023-02-04T15:47:38;9.80;99.90
40454;DHT22;26160;51.858;4.398;2023-02-04T15:50:09;9.80;99.90
40454;DHT22;26160;51.858;4.398;2023-02-04T15:52:37;9.70;99.90
40454;DHT22;26160;51.858;4.398;2023-02-04T15:55:04;9.70;99.90
40454;DHT22;26160;51.858;4.398;2023-02-04T15:57:30;9.60;99.90
40454;DHT22;26160;51.858;4.398;2023-02-04T15:59:57;9.60;99.90